Time;durP1;ratioP1;P1;durP2;ratioP2;P2;SDS_P1;SDS_P2;PMS_P1;PMS_P2;Temp;Humidity;BMP_temperature;BMP_pressure;BME280_temperature;BME280_humidity;BME280_pressure;Samples;Min_cycle;Max_cycle;Signal;HPM_P1;HPM_P2
2021/04/29 00:01:58;;;;;;;13.85;9.20;;;;;;;7.72;100.00;100148.59;3572112;40;20060;-60
2021/04/29 00:04:24;;;;;;;14.68;9.32;;;;;;;7.76;100.00;100151.00;3572035;40;20056;-59
2021/04/29 00:06:51;;;;;;;15.55;9.85;;;;;;;7.79;100.00;100158.78;3572074;40;20386;-59
2021/04/29 00:09:17;;;;;;;16.73;9.95;;;;;;;7.86;100.00;100151.88;3572278;40;20092;-59
2021/04/29 00:11:43;;;;;;;16.75;9.70;;;;;;;7.77;100.00;100148.19;3572603;40;20415;-60
2021/04/29 00:14:11;;;;;;;14.85;10.23;;;;;;;7.73;100.00;100138.75;3571155;40;20053;-60
2021/04/29 00:16:37;;;;;;;16.60;9.77;;;;;;;7.71;100.00;100141.56;3571038;40;20053;-59
2021/04/29 00:19:03;;;;;;;14.50;9.65;;;;;;;7.61;100.00;100132.66;3571410;40;20037;-59
2021/04/29 00:21:30;;;;;;;16.80;9.88;;;;;;;7.62;100.00;100139.69;3571630;40;20049;-58
2021/04/29 00:23:56;;;;;;;16.58;10.52;;;;;;;7.61;100.00;100138.00;3572090;40;20045;-60
2021/04/29 00:26:22;;;;;;;17.77;10.57;;;;;;;7.57;100.00;100138.38;3571149;40;20113;-57
2021/04/29 00:28:48;;;;;;;21.17;11.05;;;;;;;7.54;100.00;100137.69;3572355;40;20057;-58
2021/04/29 00:31:14;;;;;;;16.52;10.85;;;;;;;7.52;100.00;100134.31;3571687;40;20325;-58
2021/04/29 00:33:40;;;;;;;16.08;10.43;;;;;;;7.49;100.00;100129.22;3572237;40;20123;-58
2021/04/29 00:36:06;;;;;;;18.05;10.65;;;;;;;7.45;100.00;100121.56;3571814;40;20181;-58
2021/04/29 00:38:32;;;;;;;17.17;10.98;;;;;;;7.42;100.00;100112.00;3572161;40;20050;-58
2021/04/29 00:41:02;;;;;;;17.67;10.82;;;;;;;7.42;100.00;100116.47;3572175;40;20127;-58
2021/04/29 00:43:28;;;;;;;15.20;10.63;;;;;;;7.47;100.00;100119.63;3571706;40;21453;-58
2021/04/29 00:45:54;;;;;;;17.60;10.65;;;;;;;7.55;100.00;100122.44;3571721;40;20060;-58
2021/04/29 00:48:21;;;;;;;18.95;11.68;;;;;;;7.57;100.00;100115.16;3571184;40;20056;-59
2021/04/29 00:50:47;;;;;;;18.45;11.73;;;;;;;7.51;100.00;100126.41;3571760;40;20054;-59
2021/04/29 00:53:13;;;;;;;18.98;11.40;;;;;;;7.47;100.00;100124.97;3570772;40;20117;-57
2021/04/29 00:55:39;;;;;;;19.35;12.25;;;;;;;7.50;100.00;100124.69;3572712;40;20400;-59
2021/04/29 00:58:06;;;;;;;18.88;12.18;;;;;;;7.48;100.00;100121.28;3571731;40;20410;-58
2021/04/29 01:00:34;;;;;;;16.25;10.82;;;;;;;7.45;100.00;100124.25;3570593;40;20045;-58
2021/04/29 01:03:03;;;;;;;15.05;11.13;;;;;;;7.46;100.00;100131.31;3571188;40;20029;-58
2021/04/29 01:05:33;;;;;;;;;;;;;;;7.35;100.00;100129.56;3571352;40;20036;-58
2021/04/29 01:08:00;;;;;;;;;;;;;;;7.27;100.00;100129.38;3572832;40;19940;-60
2021/04/29 01:10:29;;;;;;;17.05;11.38;;;;;;;7.23;100.00;100127.94;3571398;40;20483;-58
2021/04/29 01:13:02;;;;;;;19.70;12.82;;;;;;;7.25;100.00;100134.88;3571820;40;20583;-58
2021/04/29 01:15:29;;;;;;;21.13;11.80;;;;;;;7.21;100.00;100130.75;3571543;40;20056;-60
2021/04/29 01:17:55;;;;;;;20.50;13.18;;;;;;;7.20;100.00;100123.72;3572366;40;20044;-59
2021/04/29 01:20:24;;;;;;;22.60;12.50;;;;;;;7.18;100.00;100125.66;3570708;40;20053;-59
2021/04/29 01:23:04;;;;;;;24.60;13.18;;;;;;;7.13;100.00;100123.38;3571798;40;20137;-58
2021/04/29 01:25:32;;;;;;;16.95;12.38;;;;;;;7.16;100.00;100116.94;3571507;40;20059;-58
2021/04/29 01:28:00;;;;;;;20.65;13.40;;;;;;;7.14;100.00;100116.19;3571869;40;20073;-58
2021/04/29 01:30:27;;;;;;;21.42;12.70;;;;;;;7.15;100.00;100120.56;3570564;40;20114;-58
2021/04/29 01:32:54;;;;;;;20.63;13.10;;;;;;;7.10;100.00;100114.78;3571782;40;20043;-58
2021/04/29 01:35:21;;;;;;;22.33;13.63;;;;;;;7.10;100.00;100117.47;3571129;40;20102;-60
2021/04/29 01:37:48;;;;;;;18.65;13.20;;;;;;;7.08;100.00;100114.06;3571314;40;20088;-58
2021/04/29 01:40:14;;;;;;;21.10;13.00;;;;;;;7.12;100.00;100115.50;3570347;40;20051;-58
2021/04/29 01:42:41;;;;;;;21.65;13.50;;;;;;;7.09;100.00;100113.91;3572046;40;20037;-59
2021/04/29 01:45:09;;;;;;;24.02;14.35;;;;;;;7.13;100.00;100127.91;3572317;40;20089;-57
2021/04/29 01:47:36;;;;;;;23.98;14.70;;;;;;;7.14;100.00;100118.88;3570795;40;20085;-58
2021/04/29 01:50:05;;;;;;;19.20;13.75;;;;;;;7.17;100.00;100121.31;3571956;40;20315;-58
2021/04/29 01:52:32;;;;;;;20.92;14.05;;;;;;;7.24;100.00;100108.22;3570965;40;20041;-58
2021/04/29 01:54:59;;;;;;;21.85;15.18;;;;;;;7.31;100.00;100114.75;3571592;40;20038;-59
2021/04/29 01:57:28;;;;;;;23.70;13.90;;;;;;;7.35;100.00;100111.66;3570457;40;20045;-59
2021/04/29 01:59:54;;;;;;;20.95;14.70;;;;;;;7.35;100.00;100116.19;3571010;40;20047;-59
2021/04/29 02:02:23;;;;;;;25.17;14.38;;;;;;;7.34;100.00;100103.78;3569965;40;20045;-58
2021/04/29 02:04:49;;;;;;;22.13;15.25;;;;;;;7.44;100.00;100109.19;3571306;40;20049;-59
2021/04/29 02:07:16;;;;;;;21.08;14.10;;;;;;;7.44;100.00;100110.03;3571620;40;20056;-61
2021/04/29 02:09:42;;;;;;;25.55;14.95;;;;;;;7.48;100.00;100110.59;3572332;40;20033;-59
2021/04/29 02:12:10;;;;;;;22.83;14.23;;;;;;;7.50;100.00;100103.28;3571449;40;20072;-58
2021/04/29 02:14:40;;;;;;;23.05;14.85;;;;;;;7.53;100.00;100113.72;3571047;40;20042;-61
2021/04/29 02:17:11;;;;;;;23.17;15.05;;;;;;;7.62;100.00;100112.06;3571406;40;20049;-60
2021/04/29 02:22:40;;;;;;;22.50;14.88;;;;;;;7.58;100.00;100105.28;3594729;23;20146;-62
2021/04/29 02:25:08;;;;;;;18.08;14.13;;;;;;;7.59;100.00;100101.63;3571654;40;20051;-59
2021/04/29 02:27:35;;;;;;;19.02;14.10;;;;;;;7.59;100.00;100101.63;3571040;40;20056;-59
2021/04/29 02:30:03;;;;;;;20.10;13.73;;;;;;;7.61;100.00;100103.19;3570236;40;20064;-59
2021/04/29 02:32:29;;;;;;;22.08;14.55;;;;;;;7.61;100.00;100096.97;3570818;40;20103;-61
2021/04/29 02:34:55;;;;;;;23.27;14.13;;;;;;;7.67;100.00;100094.59;3572320;40;20041;-60
2021/04/29 02:37:22;;;;;;;22.40;13.02;;;;;;;7.64;100.00;100094.00;3571764;40;20207;-59
2021/04/29 02:39:49;;;;;;;24.20;13.63;;;;;;;7.67;100.00;100094.59;3571210;40;20321;-59
2021/04/29 02:42:16;;;;;;;21.35;14.48;;;;;;;7.68;100.00;100085.56;3571223;40;20057;-60
2021/04/29 02:44:42;;;;;;;18.60;14.05;;;;;;;7.73;100.00;100087.88;3571504;40;20131;-59
2021/04/29 02:47:08;;;;;;;17.10;13.27;;;;;;;7.71;100.00;100079.97;3571317;40;20041;-59
2021/04/29 02:49:34;;;;;;;18.30;12.95;;;;;;;7.69;100.00;100087.28;3571112;40;20597;-59
2021/04/29 02:52:01;;;;;;;22.02;14.30;;;;;;;7.70;100.00;100080.94;3570864;40;20049;-59
2021/04/29 02:54:28;;;;;;;19.20;13.95;;;;;;;7.66;100.00;100076.00;3571109;40;20393;-59
2021/04/29 02:56:54;;;;;;;23.17;14.45;;;;;;;7.76;100.00;100073.31;3571444;40;20055;-59
2021/04/29 02:59:20;;;;;;;20.80;13.93;;;;;;;7.71;100.00;100077.28;3570686;40;20074;-59
2021/04/29 03:01:46;;;;;;;18.80;14.20;;;;;;;7.74;100.00;100072.63;3571086;40;20033;-59
2021/04/29 03:04:12;;;;;;;21.05;13.80;;;;;;;7.74;100.00;100067.28;3570612;40;20081;-58
2021/04/29 03:06:39;;;;;;;22.13;15.05;;;;;;;7.83;100.00;100067.31;3570911;40;20044;-59
2021/04/29 03:09:06;;;;;;;18.80;14.23;;;;;;;7.86;100.00;100067.03;3570953;40;20404;-60
2021/04/29 03:11:34;;;;;;;22.48;14.23;;;;;;;7.88;100.00;100062.38;3571621;40;20064;-59
2021/04/29 03:14:01;;;;;;;21.60;14.40;;;;;;;7.81;100.00;100055.03;3569818;40;20053;-58
2021/04/29 03:16:27;;;;;;;22.60;13.55;;;;;;;7.86;100.00;100052.75;3570374;40;20111;-59
2021/04/29 03:18:52;;;;;;;21.80;13.15;;;;;;;7.89;100.00;100049.81;3570462;40;20033;-58
2021/04/29 03:21:18;;;;;;;21.73;13.35;;;;;;;7.89;100.00;100049.81;3570560;40;20391;-59
2021/04/29 03:23:44;;;;;;;22.45;13.80;;;;;;;7.85;100.00;100043.06;3571334;40;20398;-58
2021/04/29 03:26:10;;;;;;;21.05;13.82;;;;;;;7.87;100.00;100046.44;3570298;40;20731;-57
2021/04/29 03:28:36;;;;;;;19.38;13.43;;;;;;;7.85;100.00;100048.41;3570542;40;20042;-58
2021/04/29 03:31:03;;;;;;;19.13;13.50;;;;;;;7.81;100.00;100049.66;3569263;40;20061;-59
2021/04/29 03:33:29;;;;;;;20.48;14.27;;;;;;;7.91;100.00;100044.34;3569661;40;20049;-58
2021/04/29 03:38:45;;;;;;;21.92;14.20;;;;;;;7.88;100.00;100048.97;3570817;23;20044;-59
2021/04/29 03:41:11;;;;;;;18.52;13.60;;;;;;;7.97;100.00;100046.44;3570747;40;20064;-58
2021/04/29 03:43:37;;;;;;;20.58;14.38;;;;;;;8.01;100.00;100054.06;3571463;40;20037;-58
2021/04/29 03:46:04;;;;;;;19.33;13.65;;;;;;;7.99;100.00;100047.97;3570919;40;20424;-58
2021/04/29 03:48:30;;;;;;;20.60;14.25;;;;;;;8.02;100.00;100055.78;3570676;40;20362;-59
2021/04/29 03:50:56;;;;;;;18.92;14.32;;;;;;;7.98;100.00;100054.34;3572263;40;20064;-60
2021/04/29 03:53:22;;;;;;;20.88;13.90;;;;;;;8.09;100.00;100057.88;3571834;40;20150;-58
2021/04/29 03:55:48;;;;;;;18.55;13.10;;;;;;;8.28;100.00;100057.88;3572225;40;20288;-58
2021/04/29 03:58:13;;;;;;;24.25;14.38;;;;;;;8.10;100.00;100046.16;3571385;40;20055;-58
2021/04/29 04:00:40;;;;;;;20.15;13.90;;;;;;;8.06;100.00;100051.81;3571625;40;20863;-59
2021/04/29 04:03:06;;;;;;;19.73;14.63;;;;;;;8.23;100.00;100052.13;3571898;40;20081;-59
2021/04/29 04:05:33;;;;;;;22.50;14.57;;;;;;;8.09;100.00;100060.56;3572663;40;20084;-59
2021/04/29 04:07:59;;;;;;;21.75;14.25;;;;;;;8.01;100.00;100059.44;3571014;40;20045;-59
2021/04/29 04:10:25;;;;;;;27.52;15.07;;;;;;;7.93;100.00;100067.31;3571805;40;20045;-59
2021/04/29 04:12:51;;;;;;;25.02;15.27;;;;;;;7.91;100.00;100068.44;3572554;40;20045;-59
2021/04/29 04:15:17;;;;;;;21.27;16.00;;;;;;;7.89;100.00;100081.94;3572526;40;20058;-60
2021/04/29 04:17:43;;;;;;;23.05;16.23;;;;;;;7.81;100.00;100092.53;3572779;40;20326;-58
2021/04/29 04:20:10;;;;;;;22.58;15.60;;;;;;;7.80;100.00;100098.84;3572399;40;20285;-59
2021/04/29 04:22:36;;;;;;;24.55;16.80;;;;;;;7.79;100.00;100097.16;3570671;40;20062;-59
2021/04/29 04:25:04;;;;;;;23.42;15.80;;;;;;;7.82;100.00;100110.31;3571782;40;20048;-58
2021/04/29 04:27:30;;;;;;;24.35;16.02;;;;;;;7.78;100.00;100107.03;3572555;40;20065;-58
2021/04/29 04:29:56;;;;;;;21.92;15.98;;;;;;;7.78;100.00;100106.19;3571871;40;20041;-60
2021/04/29 04:32:22;;;;;;;22.73;16.70;;;;;;;7.77;100.00;100112.53;3571502;40;20079;-59
2021/04/29 04:34:48;;;;;;;24.08;16.10;;;;;;;7.84;100.00;100119.03;3571389;40;20041;-58
2021/04/29 04:37:14;;;;;;;26.77;17.15;;;;;;;7.79;100.00;100121.28;3570614;40;20060;-58
2021/04/29 04:39:40;;;;;;;28.63;18.13;;;;;;;7.81;100.00;100130.03;3571877;40;20377;-61
2021/04/29 04:42:07;;;;;;;27.05;19.20;;;;;;;7.62;100.00;100128.97;3571624;40;20138;-58
2021/04/29 04:44:33;;;;;;;31.20;20.10;;;;;;;7.55;100.00;100135.84;3571936;40;20037;-58
2021/04/29 04:47:00;;;;;;;27.83;18.38;;;;;;;7.51;100.00;100142.47;3571520;40;20072;-59
2021/04/29 04:49:26;;;;;;;27.42;19.40;;;;;;;7.57;100.00;100144.59;3571250;40;20052;-59
2021/04/29 04:52:19;;;;;;;32.83;20.92;;;;;;;7.57;100.00;100141.94;3624360;22;20061;-57
2021/04/29 04:54:47;;;;;;;34.40;20.55;;;;;;;7.55;100.00;100141.19;3558754;40;20068;-59
2021/04/29 04:57:13;;;;;;;32.10;22.45;;;;;;;7.47;100.00;100128.50;3561378;40;20061;-59
2021/04/29 04:59:39;;;;;;;34.80;23.27;;;;;;;7.52;100.00;100131.63;3561883;40;20158;-59
2021/04/29 05:02:05;;;;;;;38.75;24.88;;;;;;;7.60;100.00;100135.47;3560395;40;20050;-58
2021/04/29 05:04:32;;;;;;;31.42;22.63;;;;;;;7.64;100.00;100131.50;3562193;40;20042;-59
2021/04/29 05:09:26;;;;;;;32.50;21.73;;;;;;;7.73;100.00;100136.09;3638331;22;20404;-59
2021/04/29 05:11:52;;;;;;;34.72;23.67;;;;;;;7.76;100.00;100137.63;3577760;40;20041;-60
2021/04/29 05:14:18;;;;;;;32.88;23.38;;;;;;;7.72;100.00;100147.78;3576790;40;20040;-60
2021/04/29 05:16:44;;;;;;;33.28;23.45;;;;;;;7.68;100.00;100149.00;3582123;40;20118;-60
2021/04/29 05:19:10;;;;;;;35.38;23.55;;;;;;;7.70;100.00;100144.38;3581125;40;20068;-59
2021/04/29 05:21:36;;;;;;;37.25;23.90;;;;;;;7.69;100.00;100135.47;3580841;40;20044;-58
2021/04/29 05:24:03;;;;;;;37.92;23.15;;;;;;;7.69;100.00;100142.69;3579641;40;20044;-60
2021/04/29 05:26:30;;;;;;;40.58;24.75;;;;;;;7.67;100.00;100136.59;3582045;40;20092;-61
2021/04/29 05:28:55;;;;;;;39.45;24.23;;;;;;;7.70;100.00;100133.66;3581892;40;20055;-62
2021/04/29 05:31:21;;;;;;;44.20;25.60;;;;;;;7.67;100.00;100132.09;3580214;40;20467;-59
2021/04/29 05:33:47;;;;;;;38.63;24.88;;;;;;;7.64;100.00;100127.03;3581546;40;20029;-60
2021/04/29 05:36:13;;;;;;;38.97;23.77;;;;;;;7.67;100.00;100129.44;3581536;40;20322;-60
2021/04/29 05:38:39;;;;;;;40.40;25.75;;;;;;;7.63;100.00;100117.28;3581268;40;20067;-60
2021/04/29 05:41:06;;;;;;;44.28;28.45;;;;;;;7.57;100.00;100109.78;3580229;40;20049;-61
2021/04/29 05:43:33;;;;;;;41.00;25.48;;;;;;;7.61;100.00;100103.19;3573650;40;20048;-59
2021/04/29 05:45:59;;;;;;;41.28;26.58;;;;;;;7.56;100.00;100088.50;3579765;40;20326;-59
2021/04/29 05:48:24;;;;;;;46.38;27.23;;;;;;;7.50;100.00;100098.75;3581104;40;20125;-60
2021/04/29 05:50:50;;;;;;;42.83;27.30;;;;;;;7.48;100.00;100095.38;3581289;40;20133;-59
2021/04/29 05:53:16;;;;;;;42.40;25.73;;;;;;;7.42;100.00;100084.34;3579898;40;20040;-59
2021/04/29 05:55:42;;;;;;;32.85;21.73;;;;;;;7.51;100.00;100091.59;3581214;40;20366;-61
2021/04/29 05:58:08;;;;;;;37.65;24.65;;;;;;;7.42;100.00;100093.25;3580799;40;20150;-59
2021/04/29 06:00:36;;;;;;;39.13;24.83;;;;;;;7.33;100.00;100092.22;3580330;40;20049;-59
2021/04/29 06:03:02;;;;;;;37.95;22.58;;;;;;;7.42;100.00;100100.41;3580717;40;20405;-59
2021/04/29 06:05:28;;;;;;;38.20;24.67;;;;;;;7.35;100.00;100105.47;3581577;40;20388;-59
2021/04/29 06:07:55;;;;;;;38.30;25.08;;;;;;;7.25;100.00;100108.09;3581867;40;20078;-59
2021/04/29 06:10:21;;;;;;;38.22;23.52;;;;;;;7.38;100.00;100105.22;3580204;40;20048;-61
2021/04/29 06:12:47;;;;;;;36.38;23.48;;;;;;;7.35;100.00;100105.47;3579989;40;20115;-59
2021/04/29 06:15:14;;;;;;;38.80;24.15;;;;;;;7.41;100.00;100114.81;3576622;40;20052;-60
2021/04/29 06:17:41;;;;;;;46.05;25.23;;;;;;;7.47;100.00;100119.63;3581169;40;20427;-59
2021/04/29 06:20:08;;;;;;;38.20;24.27;;;;;;;7.48;100.00;100126.66;3579000;40;20156;-61
2021/04/29 06:22:34;;;;;;;40.13;23.88;;;;;;;7.34;100.00;100131.38;3581136;40;20140;-59
2021/04/29 06:25:00;;;;;;;42.30;28.27;;;;;;;7.33;100.00;100129.72;3579929;40;20053;-59
2021/04/29 06:27:26;;;;;;;35.92;24.50;;;;;;;7.39;100.00;100141.72;3581143;40;20045;-61
2021/04/29 06:29:52;;;;;;;37.13;24.02;;;;;;;7.39;100.00;100148.88;3581027;40;20055;-58
2021/04/29 06:32:18;;;;;;;34.95;23.42;;;;;;;7.48;100.00;100143.59;3580774;40;20061;-58
2021/04/29 06:34:46;;;;;;;32.13;22.65;;;;;;;7.48;100.00;100150.75;3580722;40;20048;-59
2021/04/29 06:37:12;;;;;;;34.28;22.58;;;;;;;7.27;100.00;100146.28;3580504;40;20411;-59
2021/04/29 06:39:38;;;;;;;33.38;23.50;;;;;;;7.36;100.00;100152.66;3581187;40;20056;-60
2021/04/29 06:42:05;;;;;;;33.13;21.45;;;;;;;7.42;100.00;100143.25;3579941;40;20285;-59
2021/04/29 06:44:32;;;;;;;31.23;20.73;;;;;;;7.33;100.00;100142.22;3580813;40;20033;-59
2021/04/29 06:46:58;;;;;;;35.20;20.85;;;;;;;7.35;100.00;100143.78;3580844;40;20044;-60
2021/04/29 06:49:25;;;;;;;31.17;20.15;;;;;;;7.37;100.00;100141.81;3581201;40;20121;-59
2021/04/29 06:51:52;;;;;;;29.83;19.77;;;;;;;7.36;100.00;100148.19;3579632;40;20387;-62
2021/04/29 06:54:18;;;;;;;34.47;22.70;;;;;;;7.35;100.00;100157.19;3580558;40;20396;-62
2021/04/29 06:56:44;;;;;;;33.88;21.30;;;;;;;7.37;100.00;100151.69;3580401;40;20060;-60
2021/04/29 06:59:10;;;;;;;31.25;21.48;;;;;;;7.31;100.00;100152.22;3581408;40;20156;-61
2021/04/29 07:01:39;;;;;;;30.70;20.20;;;;;;;7.29;100.00;100144.31;3580710;40;20057;-60
2021/04/29 07:04:05;;;;;;;35.47;21.40;;;;;;;7.27;100.00;100146.28;3581005;40;20372;-59
2021/04/29 07:06:32;;;;;;;35.95;22.00;;;;;;;7.23;100.00;100149.34;3580900;40;20079;-59
2021/04/29 07:09:03;;;;;;;31.33;21.95;;;;;;;7.17;100.00;100158.78;3581496;40;20049;-59
2021/04/29 07:11:30;;;;;;;35.50;23.35;;;;;;;7.26;100.00;100141.91;3580876;40;20040;-59
2021/04/29 07:13:57;;;;;;;36.42;23.63;;;;;;;7.30;100.00;100145.16;3581203;40;20041;-59
2021/04/29 07:16:23;;;;;;;32.10;21.60;;;;;;;7.40;100.00;100134.53;3579904;40;20142;-62
2021/04/29 07:18:50;;;;;;;35.08;23.00;;;;;;;7.43;100.00;100128.91;3580877;40;20067;-59
2021/04/29 07:21:16;;;;;;;38.13;23.90;;;;;;;7.32;100.00;100122.66;3580505;40;20041;-61
2021/04/29 07:23:42;;;;;;;40.72;23.88;;;;;;;7.25;100.00;100126.84;3581860;40;20053;-59
2021/04/29 07:26:08;;;;;;;38.38;23.85;;;;;;;7.22;100.00;100127.09;3582192;40;20093;-60
2021/04/29 07:28:36;;;;;;;38.00;25.33;;;;;;;7.19;100.00;100135.41;3582896;40;20048;-60
2021/04/29 07:31:03;;;;;;;37.65;25.15;;;;;;;7.28;100.00;100120.38;3582085;40;20052;-59
2021/04/29 07:33:29;;;;;;;38.60;25.55;;;;;;;7.31;100.00;100123.63;3582212;40;20065;-60
2021/04/29 07:35:55;;;;;;;40.22;25.15;;;;;;;7.32;100.00;100128.00;3581269;40;20130;-61
2021/04/29 07:38:21;;;;;;;36.22;24.10;;;;;;;7.34;100.00;100119.84;3582957;40;20072;-60
2021/04/29 07:40:47;;;;;;;37.17;23.83;;;;;;;7.41;100.00;100121.00;3582527;40;20432;-60
2021/04/29 07:43:14;;;;;;;34.33;24.27;;;;;;;7.34;100.00;100109.97;3575962;40;20045;-60
2021/04/29 07:45:40;;;;;;;45.42;27.60;;;;;;;7.17;100.00;100116.78;3581894;40;20063;-59
2021/04/29 07:48:06;;;;;;;37.30;25.35;;;;;;;7.26;100.00;100111.59;3582654;40;20053;-58
2021/04/29 07:50:32;;;;;;;39.85;27.00;;;;;;;7.29;100.00;100104.19;3582370;40;20068;-61
2021/04/29 07:52:59;;;;;;;38.53;26.40;;;;;;;7.24;100.00;100103.72;3582716;40;20088;-59
2021/04/29 07:55:25;;;;;;;38.78;25.88;;;;;;;7.28;100.00;100104.31;3582289;40;20051;-60
2021/04/29 07:57:51;;;;;;;43.53;27.92;;;;;;;7.32;100.00;100114.63;3582713;40;20040;-60
2021/04/29 08:00:19;;;;;;;40.00;26.27;;;;;;;7.35;100.00;100110.84;3581008;40;20048;-60
2021/04/29 08:02:45;;;;;;;41.03;26.65;;;;;;;7.26;100.00;100108.94;3582449;40;20060;-59
2021/04/29 08:05:12;;;;;;;38.75;25.88;;;;;;;7.33;100.00;100110.09;3581375;40;20047;-60
2021/04/29 08:07:39;;;;;;;38.58;25.15;;;;;;;7.40;100.00;100116.63;3582878;40;20409;-60
2021/04/29 08:10:07;;;;;;;38.17;24.33;;;;;;;7.45;100.00;100117.06;3582397;40;20033;-60
2021/04/29 08:12:33;;;;;;;41.53;25.88;;;;;;;7.39;100.00;100114.94;3582392;40;20048;-60
2021/04/29 08:15:00;;;;;;;36.75;24.63;;;;;;;7.48;100.00;100113.25;3582929;40;20045;-59
2021/04/29 08:17:27;;;;;;;35.63;23.73;;;;;;;7.39;100.00;100112.25;3582509;40;20049;-60
2021/04/29 08:19:54;;;;;;;36.72;25.05;;;;;;;7.41;100.00;100120.16;3581327;40;20060;-59
2021/04/29 08:22:20;;;;;;;36.67;24.60;;;;;;;7.43;100.00;100119.03;3581961;40;20071;-59
2021/04/29 08:24:46;;;;;;;36.92;22.70;;;;;;;7.36;100.00;100128.56;3580946;40;20037;-59
2021/04/29 08:27:12;;;;;;;34.10;22.60;;;;;;;7.37;100.00;100136.47;3580510;40;20141;-59
2021/04/29 08:29:38;;;;;;;40.88;24.77;;;;;;;7.31;100.00;100134.31;3581417;40;20045;-59
2021/04/29 08:32:05;;;;;;;38.95;23.90;;;;;;;7.34;100.00;100138.56;3580786;40;20059;-60
2021/04/29 08:34:32;;;;;;;36.08;24.42;;;;;;;7.44;100.00;100130.59;3580991;40;20439;-60
2021/04/29 08:36:58;;;;;;;35.28;23.90;;;;;;;7.37;100.00;100146.34;3580921;40;20386;-59
2021/04/29 08:39:25;;;;;;;41.53;25.20;;;;;;;7.36;100.00;100145.50;3581411;40;20400;-59
2021/04/29 08:41:51;;;;;;;41.83;25.45;;;;;;;7.39;100.00;100143.53;3581484;40;20060;-59
2021/04/29 08:44:17;;;;;;;34.75;23.35;;;;;;;7.35;100.00;100153.66;3580497;40;20381;-60
2021/04/29 08:46:43;;;;;;;39.17;24.60;;;;;;;7.44;100.00;100146.66;3580954;40;20141;-60
2021/04/29 08:49:10;;;;;;;43.33;24.00;;;;;;;7.32;100.00;100157.44;3581652;40;20079;-59
2021/04/29 08:51:37;;;;;;;37.83;22.92;;;;;;;7.28;100.00;100165.88;3580659;40;20045;-60
2021/04/29 08:54:04;;;;;;;38.38;22.08;;;;;;;7.40;100.00;100155.94;3581620;40;20045;-60
2021/04/29 08:56:30;;;;;;;39.00;25.30;;;;;;;7.28;100.00;100160.53;3580638;40;20135;-59
2021/04/29 08:58:58;;;;;;;42.35;25.08;;;;;;;7.32;100.00;100159.28;3581139;40;20084;-59
2021/04/29 09:01:25;;;;;;;36.55;24.10;;;;;;;7.33;100.00;100159.16;3581093;40;20041;-61
2021/04/29 09:03:51;;;;;;;38.40;24.05;;;;;;;7.41;100.00;100154.97;3581487;40;20045;-60
2021/04/29 09:06:29;;;;;;;37.45;24.10;;;;;;;7.44;100.00;100158.22;3581330;40;20052;-59
2021/04/29 09:08:58;;;;;;;35.38;22.98;;;;;;;7.43;100.00;100155.66;3580229;40;20403;-59
2021/04/29 09:11:24;;;;;;;40.35;25.50;;;;;;;7.41;100.00;100169.19;3580044;40;20060;-60
2021/04/29 09:13:55;;;;;;;36.17;23.95;;;;;;;7.39;100.00;100170.28;3580996;40;20037;-58
2021/04/29 09:16:21;;;;;;;35.13;25.05;;;;;;;7.44;100.00;100178.78;3580914;40;20052;-59
2021/04/29 09:18:48;;;;;;;36.80;23.25;;;;;;;7.51;100.00;100185.31;3581880;40;20326;-59
2021/04/29 09:21:15;;;;;;;34.22;21.73;;;;;;;7.55;100.00;100186.72;3580859;40;20052;-59
2021/04/29 09:23:42;;;;;;;38.25;21.92;;;;;;;7.65;100.00;100192.13;3581274;40;20450;-58
2021/04/29 09:26:11;;;;;;;30.90;19.98;;;;;;;7.58;100.00;100205.19;3580473;40;20057;-62
2021/04/29 09:28:41;;;;;;;34.33;21.17;;;;;;;7.48;100.00;100196.25;3582146;40;20103;-61
2021/04/29 09:31:11;;;;;;;27.23;20.27;;;;;;;7.51;100.00;100215.59;3577723;40;20045;-59
2021/04/29 09:33:39;;;;;;;28.08;19.02;;;;;;;7.52;100.00;100219.13;3582413;40;20114;-60
2021/04/29 09:36:07;;;;;;;31.70;19.45;;;;;;;7.52;100.00;100225.34;3581951;40;20130;-60
2021/04/29 09:38:37;;;;;;;33.85;20.52;;;;;;;7.46;100.00;100225.00;3582093;40;20404;-58
2021/04/29 09:41:03;;;;;;;29.02;19.33;;;;;;;7.47;100.00;100221.38;3581483;40;20576;-59
2021/04/29 09:43:30;;;;;;;28.13;19.73;;;;;;;7.59;100.00;100230.16;3581689;40;20051;-59
2021/04/29 09:45:58;;;;;;;27.77;18.58;;;;;;;7.55;100.00;100221.53;3581393;40;20047;-59
2021/04/29 09:48:34;;;;;;;24.30;17.88;;;;;;;7.37;100.00;100243.56;3580230;40;20045;-60
2021/04/29 09:51:01;;;;;;;29.48;19.85;;;;;;;7.36;100.00;100252.59;3581074;40;20422;-61
2021/04/29 09:53:38;;;;;;;28.27;20.17;;;;;;;7.46;100.00;100252.63;3579076;40;20084;-59
2021/04/29 09:56:08;;;;;;;30.38;20.00;;;;;;;7.45;100.00;100253.63;3580847;40;20048;-61
2021/04/29 09:58:35;;;;;;;26.40;18.38;;;;;;;7.50;100.00;100253.22;3581247;40;20374;-61
2021/04/29 10:01:01;;;;;;;27.70;18.05;;;;;;;7.46;100.00;100268.69;3580515;40;20061;-59
2021/04/29 10:03:27;;;;;;;26.50;17.70;;;;;;;7.51;100.00;100268.31;3580206;40;20052;-59
2021/04/29 10:05:54;;;;;;;27.08;19.13;;;;;;;7.58;100.00;100260.59;3582343;40;20122;-60
2021/04/29 10:08:23;;;;;;;30.75;20.20;;;;;;;7.55;100.00;100280.44;3582234;40;20092;-59
2021/04/29 10:10:52;;;;;;;26.58;18.88;;;;;;;7.60;100.00;100274.72;3581875;40;20288;-60
2021/04/29 10:13:18;;;;;;;31.25;20.25;;;;;;;7.58;100.00;100285.53;3582316;40;20109;-59
2021/04/29 10:15:45;;;;;;;27.48;19.02;;;;;;;7.64;100.00;100281.50;3581786;40;20056;-61
2021/04/29 10:18:14;;;;;;;29.10;19.25;;;;;;;7.64;100.00;100293.09;3580369;40;20330;-61
2021/04/29 10:20:42;;;;;;;24.13;18.08;;;;;;;7.72;100.00;100287.91;3581571;40;20129;-61
2021/04/29 10:23:09;;;;;;;27.60;18.77;;;;;;;7.81;100.00;100296.13;3580892;40;20154;-60
2021/04/29 10:25:36;;;;;;;27.08;17.63;;;;;;;7.89;100.00;100291.81;3580233;40;20275;-59
2021/04/29 10:28:03;;;;;;;24.33;16.80;;;;;;;7.89;100.00;100297.16;3579969;40;20052;-62
2021/04/29 10:30:34;;;;;;;27.52;17.88;;;;;;;7.94;100.00;100299.44;3580772;40;20044;-60
2021/04/29 10:33:12;;;;;;;28.45;17.90;;;;;;;7.91;100.00;100299.72;3581492;40;20281;-60
2021/04/29 10:35:49;;;;;;;26.40;18.70;;;;;;;7.89;100.00;100301.66;3579699;40;20049;-60
2021/04/29 10:38:24;;;;;;;28.25;18.70;;;;;;;7.87;100.00;100317.03;3578373;40;20057;-61
2021/04/29 10:40:50;;;;;;;25.50;17.65;;;;;;;7.83;100.00;100313.78;3578493;40;20037;-61
2021/04/29 10:43:28;;;;;;;28.80;18.80;;;;;;;7.87;100.00;100314.34;3579404;40;20055;-60
2021/04/29 10:45:54;;;;;;;22.73;17.40;;;;;;;7.82;100.00;100316.59;3580736;40;20049;-60
2021/04/29 10:48:21;;;;;;;30.08;19.35;;;;;;;7.79;100.00;100324.88;3580193;40;20040;-59
2021/04/29 10:50:49;;;;;;;24.90;16.63;;;;;;;7.77;100.00;100325.00;3580934;40;20395;-59
2021/04/29 10:53:27;;;;;;;29.70;19.48;;;;;;;7.87;100.00;100331.28;3579524;40;20084;-60
2021/04/29 10:55:58;;;;;;;25.70;18.50;;;;;;;7.76;100.00;100333.16;3580973;40;20064;-59
2021/04/29 10:58:25;;;;;;;28.85;19.10;;;;;;;7.62;100.00;100326.31;3581624;40;20092;-61
2021/04/29 11:01:00;;;;;;;25.52;16.83;;;;;;;7.50;100.00;100339.75;3581449;40;20050;-59
2021/04/29 11:03:35;;;;;;;28.35;18.25;;;;;;;7.54;100.00;100335.84;3580236;40;20047;-59
2021/04/29 11:06:05;;;;;;;26.23;18.40;;;;;;;7.50;100.00;100341.59;3580969;40;20049;-59
2021/04/29 11:08:36;;;;;;;27.33;19.27;;;;;;;7.57;100.00;100345.47;3581171;40;20447;-60
2021/04/29 11:11:02;;;;;;;27.40;18.30;;;;;;;7.56;100.00;100346.44;3580663;40;20147;-60
2021/04/29 11:13:29;;;;;;;22.23;15.88;;;;;;;7.63;100.00;100349.47;3581134;40;20134;-62
2021/04/29 11:15:59;;;;;;;21.80;14.50;;;;;;;7.56;100.00;100348.28;3581393;40;20045;-59
2021/04/29 11:18:26;;;;;;;18.38;12.32;;;;;;;7.61;100.00;100352.28;3581314;40;20110;-61